Time;durP1;ratioP1;P1;durP2;ratioP2;P2;SDS_P1;SDS_P2;PMS_P1;PMS_P2;Temp;Humidity;BMP_temperature;BMP_pressure;BME280_temperature;BME280_humidity;BME280_pressure;Samples;Min_cycle;Max_cycle;Signal;HPM_P1;HPM_P2
2023/01/24 00:00:07;;;;;;;11.40;6.90;;;;;;;0.08;94.71;102950.32;107132;1249;71557;-68
2023/01/24 00:02:56;;;;;;;10.90;6.20;;;;;;;0.07;95.15;102955.64;106996;1256;73653;-67
2023/01/24 00:05:25;;;;;;;12.10;7.00;;;;;;;0.08;96.09;102954.61;107071;1256;70257;-66
2023/01/24 00:07:54;;;;;;;11.80;6.70;;;;;;;0.13;96.83;102957.38;107169;1248;73771;-65
2023/01/24 00:10:24;;;;;;;11.10;6.20;;;;;;;0.18;96.45;102959.64;107175;1245;60988;-64
2023/01/24 00:12:53;;;;;;;12.10;6.30;;;;;;;0.21;96.06;102959.15;107124;1246;59969;-63
2023/01/24 00:15:22;;;;;;;10.80;6.10;;;;;;;0.22;95.59;102959.50;107186;1245;71802;-65
2023/01/24 00:17:51;;;;;;;9.90;5.50;;;;;;;0.21;95.69;102962.40;107109;1245;71810;-66
2023/01/24 00:20:21;;;;;;;10.50;6.00;;;;;;;0.22;95.21;102961.90;107102;1243;70258;-65
2023/01/24 00:22:50;;;;;;;10.90;6.40;;;;;;;0.16;95.48;102966.49;107142;1246;72442;-66
2023/01/24 00:25:19;;;;;;;9.80;5.60;;;;;;;0.15;96.46;102968.36;107164;1257;61531;-66
2023/01/24 00:27:49;;;;;;;11.30;6.20;;;;;;;0.15;95.83;102962.70;107147;1249;60587;-66
2023/01/24 00:30:18;;;;;;;13.20;6.00;;;;;;;0.13;96.64;102965.61;107047;1245;73200;-67
2023/01/24 00:32:47;;;;;;;11.10;6.70;;;;;;;0.11;96.83;102962.00;107138;1245;69976;-67
2023/01/24 00:35:16;;;;;;;10.10;6.00;;;;;;;0.09;97.43;102963.36;107202;1246;68389;-65
2023/01/24 00:37:45;;;;;;;10.80;6.40;;;;;;;0.14;96.17;102959.45;107131;1248;71643;-67
2023/01/24 00:40:15;;;;;;;10.10;6.30;;;;;;;0.15;96.33;102959.11;107076;1255;60048;-66
2023/01/24 00:42:45;;;;;;;13.70;6.80;;;;;;;0.14;97.58;102962.70;107127;1244;61276;-65
2023/01/24 00:45:14;;;;;;;10.90;6.60;;;;;;;0.20;98.22;102961.89;107176;1244;73488;-65
2023/01/24 00:47:43;;;;;;;11.50;6.20;;;;;;;0.23;97.65;102965.17;107114;1248;70577;-67
2023/01/24 00:50:12;;;;;;;10.90;6.30;;;;;;;0.22;97.12;102970.48;107173;1248;68134;-66
2023/01/24 00:52:41;;;;;;;10.20;6.40;;;;;;;0.19;97.32;102970.27;107153;1248;73279;-66
2023/01/24 00:55:12;;;;;;;10.10;5.60;;;;;;;0.23;97.58;102968.25;107211;1247;60023;-67
2023/01/24 00:57:41;;;;;;;10.80;6.40;;;;;;;0.18;97.05;102974.23;107008;1257;59227;-68
2023/01/24 01:00:12;;;;;;;10.60;6.20;;;;;;;0.14;97.28;102971.62;107174;1248;73531;-66
2023/01/24 01:02:41;;;;;;;12.80;6.70;;;;;;;0.14;96.95;102970.77;107126;1248;73399;-67
2023/01/24 01:05:10;;;;;;;10.70;6.30;;;;;;;0.13;96.72;102975.39;107184;1249;69068;-68
2023/01/24 01:07:39;;;;;;;12.10;6.50;;;;;;;0.11;96.72;102974.86;107142;1249;74097;-67
2023/01/24 01:10:10;;;;;;;10.10;6.10;;;;;;;0.11;96.61;102975.71;107146;1248;60952;-67
2023/01/24 01:12:39;;;;;;;13.10;7.00;;;;;;;0.13;97.30;102977.11;107173;1243;60692;-67
2023/01/24 01:15:09;;;;;;;12.00;7.20;;;;;;;0.16;97.13;102975.23;107251;1257;71093;-66
2023/01/24 01:17:38;;;;;;;11.60;6.40;;;;;;;0.17;96.75;102976.44;107315;1247;71718;-64
2023/01/24 01:20:08;;;;;;;10.40;6.60;;;;;;;0.16;96.79;102974.20;107299;1255;68086;-70
2023/01/24 01:22:37;;;;;;;11.70;6.30;;;;;;;0.20;97.01;102975.42;107144;1249;71109;-64
2023/01/24 01:25:06;;;;;;;11.90;6.10;;;;;;;0.21;96.29;102972.17;107220;1246;60838;-63
2023/01/24 01:27:35;;;;;;;12.10;6.20;;;;;;;0.18;96.54;102974.90;107242;1246;61279;-66
2023/01/24 01:30:06;;;;;;;10.80;6.30;;;;;;;0.20;97.05;102973.88;107303;1246;73635;-68
2023/01/24 01:32:35;;;;;;;11.10;6.10;;;;;;;0.21;96.52;102972.52;107218;1257;72229;-66
2023/01/24 01:35:04;;;;;;;13.60;7.00;;;;;;;0.24;97.56;102966.55;107303;1246;70760;-65
2023/01/24 01:37:34;;;;;;;11.50;6.00;;;;;;;0.27;97.53;102968.78;107251;1245;74221;-65
2023/01/24 01:40:04;;;;;;;12.80;6.20;;;;;;;0.32;97.60;102969.34;107182;1246;61805;-65
2023/01/24 01:43:14;;;;;;;12.40;7.10;;;;;;;0.31;96.66;102970.18;107199;1257;60619;-66
2023/01/24 01:45:48;;;;;;;13.30;6.80;;;;;;;0.33;96.79;102965.58;106838;1248;62861;-64
2023/01/24 01:48:39;;;;;;;13.40;6.90;;;;;;;0.33;98.45;102966.77;107046;1257;70214;-65
2023/01/24 01:51:21;;;;;;;13.10;6.90;;;;;;;0.27;97.92;102968.80;107030;1257;68823;-67
2023/01/24 01:54:16;;;;;;;11.50;6.70;;;;;;;0.28;98.61;102965.71;107162;1245;62663;-65
2023/01/24 01:56:59;;;;;;;11.10;6.30;;;;;;;0.36;98.11;102965.08;107278;1249;60739;-65
2023/01/24 01:59:46;;;;;;;14.20;7.10;;;;;;;0.41;97.70;102963.56;107299;1254;60436;-64
2023/01/24 02:02:17;;;;;;;12.50;6.60;;;;;;;0.34;97.31;102965.59;107066;1255;74109;-66
2023/01/24 02:05:01;;;;;;;13.70;6.90;;;;;;;0.19;97.67;102965.15;107032;1247;71904;-64
2023/01/24 02:08:07;;;;;;;12.80;6.30;;;;;;;0.25;97.05;102964.49;107084;1248;69140;-65
2023/01/24 02:13:24;;;;;;;13.10;7.70;;;;;;;0.21;98.06;102969.95;106995;1248;61177;-64
2023/01/24 02:16:02;;;;;;;15.10;6.90;;;;;;;0.25;98.56;102967.41;107163;1245;58968;-64
2023/01/24 02:18:38;;;;;;;10.80;6.00;;;;;;;0.24;97.68;102962.77;107092;1244;73405;-65
2023/01/24 02:21:15;;;;;;;13.30;6.70;;;;;;;0.22;97.31;102960.35;106608;1251;564436;-64
2023/01/24 02:24:28;;;;;;;16.30;7.00;;;;;;;0.15;97.26;102957.40;107085;1244;70920;-64
2023/01/24 02:26:57;;;;;;;13.30;7.60;;;;;;;0.11;97.67;102961.48;107099;1257;63012;-64
2023/01/24 02:29:26;;;;;;;14.10;7.30;;;;;;;0.07;98.70;102960.77;107012;1249;61737;-65
2023/01/24 02:31:59;;;;;;;15.60;7.10;;;;;;;0.10;98.58;102959.59;107050;1257;61187;-65
2023/01/24 02:34:30;;;;;;;11.50;6.10;;;;;;;0.17;98.45;102959.98;107051;1252;73917;-66
2023/01/24 02:37:07;;;;;;;16.60;8.00;;;;;;;0.19;97.59;102953.83;107038;1248;72806;-63
2023/01/24 02:39:58;;;;;;;13.40;7.10;;;;;;;0.12;97.98;102954.98;106965;1257;68668;-66
2023/01/24 02:42:34;;;;;;;14.60;7.70;;;;;;;0.14;97.49;102952.59;107098;1257;71335;-67
2023/01/24 02:45:42;;;;;;;14.40;7.80;;;;;;;0.10;98.12;102954.79;107074;1248;60502;-67
2023/01/24 02:48:11;;;;;;;15.00;7.00;;;;;;;0.07;98.03;102956.31;106800;1251;59450;-66
2023/01/24 02:53:30;;;;;;;15.00;7.60;;;;;;;0.15;98.05;102956.37;107108;1248;70833;-66
2023/01/24 02:58:52;;;;;;;14.60;7.90;;;;;;;0.07;98.87;102955.98;107063;1246;71832;-65
2023/01/24 03:01:23;;;;;;;16.20;7.50;;;;;;;0.09;99.42;102951.20;107043;1248;60378;-64
2023/01/24 03:03:56;;;;;;;16.00;8.10;;;;;;;0.15;98.48;102950.04;107014;1247;60784;-65
2023/01/24 03:06:25;;;;;;;17.10;8.00;;;;;;;0.14;98.62;102951.55;107046;1245;73419;-66
2023/01/24 03:08:54;;;;;;;17.10;8.00;;;;;;;0.13;98.68;102951.21;106922;1248;72652;-65
2023/01/24 03:11:36;;;;;;;18.90;7.70;;;;;;;0.15;98.23;102950.38;106922;1256;70428;-65
2023/01/24 03:36:31;;;;;;;19.80;10.00;;;;;;;0.07;100.00;102948.09;107116;1250;61564;-69
2023/01/24 03:41:49;;;;;;;20.70;9.20;;;;;;;0.09;100.00;102953.93;107045;1248;72606;-68
2023/01/24 03:44:18;;;;;;;20.00;9.90;;;;;;;0.16;100.00;102951.41;107018;1257;69964;-68
2023/01/24 03:46:48;;;;;;;22.80;10.60;;;;;;;0.24;100.00;102951.47;107127;1245;74171;-69
2023/01/24 03:49:17;;;;;;;25.30;11.80;;;;;;;0.28;100.00;102945.83;107071;1252;62740;-66
2023/01/24 03:54:34;;;;;;;24.40;11.60;;;;;;;0.43;100.00;102948.49;107297;1256;62364;-64
2023/01/24 03:57:05;;;;;;;24.40;10.20;;;;;;;0.32;100.00;102949.45;107216;1246;69845;-66
2023/01/24 03:59:34;;;;;;;21.70;10.60;;;;;;;0.29;100.00;102947.05;107174;1245;68798;-65
2023/01/24 04:02:04;;;;;;;22.10;10.30;;;;;;;0.21;100.00;102953.33;107132;1245;73821;-66
2023/01/24 04:07:23;;;;;;;21.30;10.50;;;;;;;0.12;100.00;102951.90;107292;1254;59314;-65
2023/01/24 04:09:59;;;;;;;22.10;9.90;;;;;;;0.12;100.00;102950.52;107275;1256;62509;-64
2023/01/24 04:12:28;;;;;;;22.40;10.70;;;;;;;0.11;100.00;102949.49;107202;1245;69898;-65
2023/01/24 04:14:58;;;;;;;23.30;11.10;;;;;;;0.16;100.00;102949.86;107227;1246;69667;-66
2023/01/24 04:17:27;;;;;;;22.50;10.70;;;;;;;0.25;100.00;102952.84;107172;1245;73980;-66
2023/01/24 04:19:56;;;;;;;21.40;11.30;;;;;;;0.26;100.00;102955.93;107233;1245;61866;-66
2023/01/24 04:22:26;;;;;;;22.50;11.00;;;;;;;0.30;100.00;102955.95;107228;1254;61334;-67
2023/01/24 04:24:56;;;;;;;27.60;10.40;;;;;;;0.20;100.00;102954.00;107263;1245;73893;-68
2023/01/24 04:27:28;;;;;;;21.00;10.10;;;;;;;0.18;100.00;102956.56;107197;1256;70714;-66
2023/01/24 04:30:33;;;;;;;25.60;9.80;;;;;;;0.15;100.00;102956.20;107122;1246;70792;-65
2023/01/24 04:33:02;;;;;;;21.50;10.60;;;;;;;0.16;100.00;102950.73;107094;1247;72973;-66
2023/01/24 04:35:31;;;;;;;19.60;10.10;;;;;;;0.13;100.00;102953.46;107176;1245;60552;-66
2023/01/24 04:38:02;;;;;;;23.40;11.40;;;;;;;0.13;100.00;102954.48;107120;1245;60222;-68
2023/01/24 04:40:40;;;;;;;23.00;11.00;;;;;;;0.14;100.00;102953.11;107152;1246;71911;-65
2023/01/24 04:43:09;;;;;;;23.20;11.80;;;;;;;0.15;100.00;102958.42;107158;1246;70291;-65
2023/01/24 04:45:39;;;;;;;21.20;10.50;;;;;;;0.13;100.00;102953.45;107125;1245;70646;-67
2023/01/24 04:48:09;;;;;;;23.90;11.90;;;;;;;0.16;100.00;102963.05;107071;1257;71766;-67
2023/01/24 04:50:38;;;;;;;20.90;10.10;;;;;;;0.20;100.00;102962.59;107109;1244;61160;-68
2023/01/24 04:53:08;;;;;;;22.80;11.50;;;;;;;0.22;100.00;102962.77;107120;1252;60869;-67
2023/01/24 04:55:38;;;;;;;24.10;11.70;;;;;;;0.23;100.00;102965.52;107089;1245;73527;-68
2023/01/24 04:58:07;;;;;;;23.80;10.90;;;;;;;0.24;100.00;102968.95;107024;1247;70165;-66
2023/01/24 05:00:36;;;;;;;21.50;11.30;;;;;;;0.23;100.00;102969.27;107019;1257;68070;-67
2023/01/24 05:03:05;;;;;;;24.80;13.10;;;;;;;0.29;100.00;102970.19;107074;1251;72294;-65
2023/01/24 05:05:34;;;;;;;24.20;12.10;;;;;;;0.30;100.00;102970.54;107074;1247;62281;-66
2023/01/24 05:08:04;;;;;;;22.50;11.10;;;;;;;0.33;100.00;102973.45;107023;1248;61465;-66
2023/01/24 05:10:34;;;;;;;25.20;11.60;;;;;;;0.34;100.00;102972.77;106947;1245;73222;-65
2023/01/24 05:13:03;;;;;;;25.60;11.90;;;;;;;0.30;100.00;102977.22;107035;1243;71778;-66
2023/01/24 05:15:33;;;;;;;23.30;10.60;;;;;;;0.34;100.00;102982.21;107085;1248;69689;-68
2023/01/24 05:18:03;;;;;;;39.60;17.40;;;;;;;0.33;100.00;102980.65;106957;1248;73560;-64
2023/01/24 05:20:33;;;;;;;22.30;11.00;;;;;;;0.31;100.00;102977.39;106921;1248;62089;-65
2023/01/24 05:23:03;;;;;;;28.60;13.40;;;;;;;0.33;100.00;102978.42;107094;1246;60876;-64
2023/01/24 05:25:35;;;;;;;27.40;12.70;;;;;;;0.36;100.00;102982.73;107159;1254;73376;-65
2023/01/24 05:28:05;;;;;;;24.10;11.70;;;;;;;0.37;100.00;102980.85;107103;1243;72306;-65
2023/01/24 05:30:37;;;;;;;26.80;12.40;;;;;;;0.35;100.00;102979.99;107081;1245;70050;-64
2023/01/24 05:33:15;;;;;;;22.90;10.40;;;;;;;0.28;100.00;102982.17;107150;1244;71789;-64
2023/01/24 05:35:44;;;;;;;27.10;11.70;;;;;;;0.29;100.00;102981.48;107206;1245;60359;-65
2023/01/24 05:38:13;;;;;;;22.70;11.30;;;;;;;0.31;100.00;102984.92;107171;1242;59724;-64
2023/01/24 05:40:43;;;;;;;21.10;10.50;;;;;;;0.31;100.00;102987.32;107121;1256;72177;-65
2023/01/24 05:43:12;;;;;;;23.20;11.80;;;;;;;0.24;100.00;102986.09;107172;1244;69515;-65
2023/01/24 05:45:41;;;;;;;22.60;11.00;;;;;;;0.30;100.00;102985.10;107111;1256;68698;-68
2023/01/24 05:48:11;;;;;;;24.50;11.50;;;;;;;0.34;100.00;102987.00;107194;1244;73599;-67
2023/01/24 05:50:40;;;;;;;24.80;11.60;;;;;;;0.35;100.00;102987.19;107157;1244;61662;-65
2023/01/24 05:53:14;;;;;;;24.50;11.50;;;;;;;0.35;100.00;102988.06;107174;1246;60651;-65
2023/01/24 05:55:44;;;;;;;24.30;11.40;;;;;;;0.35;100.00;102988.89;107152;1244;73758;-67
2023/01/24 05:58:13;;;;;;;22.20;10.90;;;;;;;0.35;100.00;102989.41;107025;1247;70013;-65
2023/01/24 06:00:56;;;;;;;28.00;14.30;;;;;;;0.34;100.00;102996.77;107028;1248;68159;-65
2023/01/24 06:03:32;;;;;;;28.40;12.10;;;;;;;0.32;100.00;102998.64;106942;1250;62765;-65
2023/01/24 06:06:01;;;;;;;29.90;13.60;;;;;;;0.30;100.00;102998.98;106982;1247;60070;-65
2023/01/24 06:08:30;;;;;;;24.20;12.20;;;;;;;0.31;100.00;103000.70;106987;1248;59824;-65
2023/01/24 06:11:14;;;;;;;23.40;11.90;;;;;;;0.34;100.00;103004.48;107133;1248;72746;-64
2023/01/24 06:13:46;;;;;;;22.30;11.20;;;;;;;0.33;100.00;103005.85;107200;1244;72271;-66
2023/01/24 06:16:21;;;;;;;24.20;11.70;;;;;;;0.34;100.00;103006.38;106833;1244;71458;-65
2023/01/24 06:18:52;;;;;;;29.40;14.20;;;;;;;0.34;100.00;102993.52;106852;1257;72276;-65
2023/01/24 06:21:33;;;;;;;28.20;12.70;;;;;;;0.51;100.00;103004.43;106856;1244;61354;-66
2023/01/24 06:24:04;;;;;;;24.00;11.00;;;;;;;0.50;100.00;103004.08;106828;1247;61079;-65
2023/01/24 06:26:47;;;;;;;26.90;12.10;;;;;;;0.53;100.00;103001.52;106955;1244;73844;-67
2023/01/24 06:29:18;;;;;;;29.00;12.40;;;;;;;0.52;100.00;103003.92;106889;1245;70772;-67
2023/01/24 06:32:30;;;;;;;22.80;11.00;;;;;;;0.57;100.00;103007.37;106855;1248;69945;-65
2023/01/24 06:35:58;;;;;;;23.90;10.00;;;;;;;0.56;100.00;103008.73;106881;1256;72364;-66
2023/01/24 06:38:28;;;;;;;23.10;11.00;;;;;;;0.41;100.00;103011.39;106739;1248;59202;-65
2023/01/24 06:41:01;;;;;;;22.30;11.20;;;;;;;0.47;100.00;103005.27;106831;1256;59198;-65
2023/01/24 06:43:30;;;;;;;25.70;14.40;;;;;;;0.49;100.00;103006.64;106877;1245;73488;-68
2023/01/24 06:45:59;;;;;;;19.80;10.30;;;;;;;0.49;100.00;103005.45;106774;1247;71977;-66
2023/01/24 06:48:28;;;;;;;17.80;9.60;;;;;;;0.50;100.00;103011.98;106850;1248;69989;-67
2023/01/24 06:50:59;;;;;;;22.60;9.90;;;;;;;0.50;100.00;103013.85;106907;1249;73742;-68
2023/01/24 06:53:28;;;;;;;19.20;10.10;;;;;;;0.43;100.00;103012.44;106955;1245;60690;-69
2023/01/24 06:55:57;;;;;;;21.60;10.60;;;;;;;0.48;100.00;103013.15;106949;1246;59118;-68
2023/01/24 06:58:26;;;;;;;18.60;9.90;;;;;;;0.40;100.00;103014.48;106958;1245;71099;-67
2023/01/24 07:00:55;;;;;;;18.20;9.80;;;;;;;0.38;100.00;103011.38;106927;1245;71000;-68
2023/01/24 07:03:24;;;;;;;22.10;10.40;;;;;;;0.52;100.00;103017.98;107008;1254;67814;-67
2023/01/24 07:05:53;;;;;;;21.00;10.10;;;;;;;0.58;100.00;103016.81;106879;1244;71110;-71
2023/01/24 07:08:22;;;;;;;21.20;10.10;;;;;;;0.67;100.00;103019.79;106917;1246;59136;-68
2023/01/24 07:10:51;;;;;;;22.40;11.10;;;;;;;0.67;100.00;103018.77;106945;1244;60045;-69
2023/01/24 07:13:20;;;;;;;20.30;10.10;;;;;;;0.72;100.00;103015.69;106959;1245;71349;-68
2023/01/24 07:15:50;;;;;;;19.60;10.30;;;;;;;0.65;100.00;103014.97;106952;1248;71101;-69
2023/01/24 07:18:20;;;;;;;21.00;9.70;;;;;;;0.72;100.00;103012.27;107034;1254;69605;-70
2023/01/24 07:20:49;;;;;;;24.10;10.50;;;;;;;0.75;100.00;103013.14;106940;1244;74517;-68
2023/01/24 07:23:25;;;;;;;20.80;9.40;;;;;;;0.80;100.00;103013.51;107219;1253;61514;-69
2023/01/24 07:25:55;;;;;;;19.60;9.10;;;;;;;0.75;100.00;103014.17;107177;1243;60248;-69
2023/01/24 07:28:24;;;;;;;18.10;10.00;;;;;;;0.76;100.00;103015.71;107116;1243;73298;-67
2023/01/24 07:30:53;;;;;;;21.90;9.60;;;;;;;0.69;100.00;103014.48;107105;1245;69381;-66
2023/01/24 07:33:22;;;;;;;19.70;9.50;;;;;;;0.74;100.00;103019.65;106943;1246;68970;-74
2023/01/24 07:35:51;;;;;;;17.10;8.80;;;;;;;0.72;100.00;103023.76;107205;1244;71412;-70
2023/01/24 07:38:20;;;;;;;16.60;8.50;;;;;;;0.75;100.00;103025.14;107111;1256;61349;-70
2023/01/24 07:40:49;;;;;;;20.70;9.50;;;;;;;0.75;100.00;103025.65;107145;1245;58973;-71
2023/01/24 07:43:20;;;;;;;23.20;9.80;;;;;;;0.74;100.00;103028.74;107097;1244;71957;-71
2023/01/24 07:45:49;;;;;;;18.50;9.10;;;;;;;0.72;100.00;103028.90;107095;1245;71365;-72
2023/01/24 07:48:20;;;;;;;17.10;8.50;;;;;;;0.74;100.00;103030.11;107082;1253;69299;-70
2023/01/24 07:50:49;;;;;;;19.00;10.10;;;;;;;0.73;100.00;103030.45;107155;1244;63578;-70
2023/01/24 07:53:18;;;;;;;19.60;9.70;;;;;;;0.67;100.00;103030.93;107189;1245;60720;-76
2023/01/24 07:55:47;;;;;;;16.40;8.20;;;;;;;0.68;100.00;103027.16;107252;1244;59146;-75
2023/01/24 07:58:31;;;;;;;17.40;9.10;;;;;;;0.71;99.93;103028.38;107116;1244;73059;-72
2023/01/24 08:01:00;;;;;;;21.10;9.10;;;;;;;0.70;100.00;103031.63;107070;1245;72536;-71
2023/01/24 08:03:29;;;;;;;19.90;8.70;;;;;;;0.67;99.99;103033.50;107195;1244;69335;-72
2023/01/24 08:05:58;;;;;;;21.10;9.40;;;;;;;0.53;100.00;103029.47;107185;1244;71416;-70
2023/01/24 08:08:27;;;;;;;23.40;10.20;;;;;;;0.56;100.00;103033.60;107063;1247;61268;-74
2023/01/24 08:10:56;;;;;;;21.50;10.40;;;;;;;0.56;100.00;103037.39;107202;1251;58622;-73
2023/01/24 08:13:25;;;;;;;21.70;9.40;;;;;;;0.63;100.00;103039.83;107204;1245;71104;-71
2023/01/24 08:15:54;;;;;;;16.30;9.90;;;;;;;0.60;100.00;103039.81;107117;1254;71428;-72
2023/01/24 08:18:23;;;;;;;21.80;10.00;;;;;;;0.55;100.00;103040.11;107084;1243;70587;-73
2023/01/24 08:20:56;;;;;;;28.20;12.70;;;;;;;0.65;100.00;103037.26;107086;1248;73586;-72
2023/01/24 08:23:25;;;;;;;22.10;9.70;;;;;;;0.63;99.98;103037.27;106988;1247;61800;-72
2023/01/24 08:25:58;;;;;;;21.20;9.90;;;;;;;0.65;99.92;103040.52;107082;1247;62354;-72
2023/01/24 08:28:29;;;;;;;17.80;9.00;;;;;;;0.58;99.66;103040.30;107172;1244;72869;-71
2023/01/24 08:30:58;;;;;;;14.50;8.10;;;;;;;0.64;99.40;103036.91;107088;1244;72161;-76
2023/01/24 08:33:28;;;;;;;21.90;10.90;;;;;;;0.69;99.80;103039.86;107315;1243;70260;-72
2023/01/24 08:35:58;;;;;;;18.60;9.40;;;;;;;0.73;99.41;103044.52;107345;1254;73941;-72
2023/01/24 08:38:28;;;;;;;20.50;8.80;;;;;;;0.76;98.68;103043.67;107247;1246;61028;-72
2023/01/24 08:40:57;;;;;;;18.50;9.60;;;;;;;0.73;98.12;103041.42;107396;1251;60393;-73
2023/01/24 08:43:25;;;;;;;18.30;10.40;;;;;;;0.62;97.67;103041.70;107212;1244;73942;-71
2023/01/24 08:45:57;;;;;;;21.60;11.40;;;;;;;0.64;98.27;103043.95;108002;1243;73722;-72
2023/01/24 08:48:29;;;;;;;20.70;9.50;;;;;;;0.69;98.31;103043.46;107473;1244;69903;-73
2023/01/24 08:50:58;;;;;;;20.50;10.10;;;;;;;0.69;98.50;103045.02;107380;1247;71557;-73
2023/01/24 08:53:28;;;;;;;18.90;9.80;;;;;;;0.67;98.28;103044.48;107176;1247;61532;-73
2023/01/24 08:55:57;;;;;;;19.50;8.90;;;;;;;0.64;98.78;103043.95;107378;1245;60015;-73
2023/01/24 08:58:26;;;;;;;23.80;14.30;;;;;;;0.71;98.24;103043.14;107279;1255;73060;-73
2023/01/24 09:00:55;;;;;;;19.40;10.10;;;;;;;0.75;97.80;103041.96;107319;1255;71596;-70
2023/01/24 09:03:24;;;;;;;23.60;10.10;;;;;;;0.81;97.15;103043.02;107290;1255;68048;-72
2023/01/24 09:05:59;;;;;;;16.20;8.60;;;;;;;0.89;97.42;103039.80;107216;1244;73115;-72
2023/01/24 09:08:29;;;;;;;17.80;9.40;;;;;;;0.79;97.13;103034.95;107300;1246;59600;-73
2023/01/24 09:10:59;;;;;;;20.80;9.80;;;;;;;0.82;97.13;103035.64;107123;1244;60620;-71
2023/01/24 09:13:28;;;;;;;19.40;9.60;;;;;;;0.56;97.28;103032.23;107205;1247;72265;-71
2023/01/24 09:15:58;;;;;;;19.20;9.80;;;;;;;0.69;97.16;103031.45;107181;1243;70640;-72
2023/01/24 09:18:27;;;;;;;19.20;9.10;;;;;;;0.72;96.51;103030.63;107313;1244;67681;-73
2023/01/24 09:21:02;;;;;;;19.70;9.30;;;;;;;0.68;96.17;103030.26;107238;1248;71230;-72
2023/01/24 09:23:30;;;;;;;19.40;9.90;;;;;;;0.70;96.23;103027.17;107259;1244;62116;-74
2023/01/24 09:25:59;;;;;;;18.30;9.60;;;;;;;0.69;96.21;103025.62;107288;1244;59876;-72
2023/01/24 09:28:29;;;;;;;19.00;10.00;;;;;;;0.67;95.81;103023.39;107400;1243;73554;-73
2023/01/24 09:30:58;;;;;;;22.30;9.70;;;;;;;0.73;95.84;103022.22;107259;1243;71236;-71
2023/01/24 09:33:27;;;;;;;21.10;9.30;;;;;;;0.73;95.62;103013.29;107155;1255;70070;-71
2023/01/24 09:36:02;;;;;;;19.90;9.90;;;;;;;0.68;95.98;103015.16;107216;1255;71645;-76
2023/01/24 09:38:33;;;;;;;26.30;11.10;;;;;;;0.71;96.33;103013.98;107013;1247;59732;-75
2023/01/24 09:41:16;;;;;;;21.60;10.60;;;;;;;0.69;96.26;103008.81;107023;1256;59988;-74
2023/01/24 09:43:57;;;;;;;22.10;11.50;;;;;;;0.70;96.67;103009.68;107197;1245;62227;-75
2023/01/24 09:46:44;;;;;;;23.80;12.20;;;;;;;0.63;97.31;103012.21;107227;1243;71389;-76
2023/01/24 09:49:38;;;;;;;25.00;11.50;;;;;;;0.63;97.17;103007.25;107280;1243;70388;-74
2023/01/24 09:52:16;;;;;;;20.80;10.20;;;;;;;0.69;98.12;103007.79;107292;1246;71850;-74
2023/01/24 09:55:05;;;;;;;23.20;11.30;;;;;;;0.68;97.40;103006.08;107187;1254;60455;-74
2023/01/24 09:58:04;;;;;;;25.20;12.50;;;;;;;0.41;98.36;103007.45;107048;1245;60296;-75
2023/01/24 10:00:38;;;;;;;24.80;12.90;;;;;;;0.44;99.34;103004.04;107239;1243;63569;-75
2023/01/24 10:03:22;;;;;;;21.20;11.10;;;;;;;0.60;98.68;102998.64;107357;1244;69550;-74
2023/01/24 10:06:01;;;;;;;27.50;13.00;;;;;;;0.64;98.07;102995.41;107306;1255;59282;-74
2023/01/24 10:08:55;;;;;;;26.80;13.10;;;;;;;0.66;98.10;102988.73;107227;1252;72217;-74
2023/01/24 10:11:55;;;;;;;25.00;12.30;;;;;;;0.72;98.08;102990.48;107353;1244;61996;-73
2023/01/24 10:14:33;;;;;;;27.10;12.80;;;;;;;0.71;97.30;102981.21;107084;1243;62273;-76
2023/01/24 10:17:17;;;;;;;24.00;12.30;;;;;;;0.65;97.46;102982.04;107175;1244;74684;-72
2023/01/24 10:19:59;;;;;;;28.50;13.00;;;;;;;0.71;96.74;102979.33;107187;1248;69837;-73
2023/01/24 10:23:00;;;;;;;23.80;10.90;;;;;;;0.78;96.58;102977.48;107091;1252;69856;-75
2023/01/24 10:25:36;;;;;;;23.10;11.20;;;;;;;0.74;95.15;102965.96;107210;1248;74737;-76
2023/01/24 10:28:18;;;;;;;23.40;11.20;;;;;;;0.74;95.20;102963.90;107217;1245;62442;-75
2023/01/24 10:30:59;;;;;;;23.30;12.00;;;;;;;0.84;95.94;102959.31;107072;1243;59388;-72
2023/01/24 10:33:35;;;;;;;27.40;12.90;;;;;;;0.87;94.79;102955.04;107132;1243;63493;-72
2023/01/24 10:36:22;;;;;;;23.40;12.80;;;;;;;0.92;94.64;102956.09;107077;1246;72587;-73
2023/01/24 10:38:51;;;;;;;28.40;12.50;;;;;;;0.98;94.52;102949.07;107453;1243;69974;-72
2023/01/24 10:41:26;;;;;;;27.90;12.60;;;;;;;0.95;94.69;102942.52;107224;1248;73887;-72
2023/01/24 10:44:36;;;;;;;32.20;16.70;;;;;;;0.89;95.80;102943.38;107070;1246;61827;-71
2023/01/24 10:47:29;;;;;;;23.80;12.10;;;;;;;0.86;94.57;102938.58;107179;1244;61295;-73
2023/01/24 10:50:04;;;;;;;29.30;13.10;;;;;;;0.79;95.15;102930.31;107152;1250;73755;-71
2023/01/24 10:52:33;;;;;;;31.80;14.20;;;;;;;0.73;95.41;102930.80;107185;1247;72671;-72
2023/01/24 10:55:25;;;;;;;23.20;11.60;;;;;;;0.63;96.07;102930.58;107237;1251;68548;-73
2023/01/24 10:57:55;;;;;;;26.10;14.30;;;;;;;0.68;95.19;102928.89;107279;1245;73491;-72
2023/01/24 11:00:40;;;;;;;28.50;13.20;;;;;;;0.66;95.58;102923.05;106985;1248;61981;-72
2023/01/24 11:03:23;;;;;;;26.30;12.50;;;;;;;0.72;96.18;102920.15;107125;1244;61720;-73
2023/01/24 11:05:58;;;;;;;24.90;12.50;;;;;;;0.78;96.60;102922.92;107182;1251;73991;-71
2023/01/24 11:08:37;;;;;;;31.30;14.00;;;;;;;0.85;95.12;102926.73;107215;1243;72538;-70
2023/01/24 11:11:32;;;;;;;22.70;12.00;;;;;;;0.87;94.81;102921.23;107077;1246;61662;-71
2023/01/24 11:14:02;;;;;;;25.20;12.60;;;;;;;0.88;94.08;102924.33;107200;1244;71878;-72
2023/01/24 11:16:41;;;;;;;23.80;12.70;;;;;;;0.80;94.00;102919.67;106905;1247;60462;-73
2023/01/24 11:19:42;;;;;;;27.30;14.10;;;;;;;0.76;94.87;102920.02;107135;1244;60789;-73
2023/01/24 11:22:34;;;;;;;27.00;14.20;;;;;;;0.72;92.19;102914.33;107061;1250;73506;-74
2023/01/24 11:25:14;;;;;;;31.60;16.00;;;;;;;0.65;91.59;102910.35;109339;1244;72392;-74
2023/01/24 11:27:49;;;;;;;26.60;13.00;;;;;;;0.69;92.10;102909.17;108544;1243;70223;-74
2023/01/24 11:30:21;;;;;;;27.40;13.60;;;;;;;0.77;91.88;102909.03;107058;1255;72215;-73
2023/01/24 11:35:26;;;;;;;24.60;13.30;;;;;;;0.70;90.37;102902.83;105133;1274;602439;-75
2023/01/24 11:38:19;;;;;;;28.30;13.20;;;;;;;0.82;92.50;102902.52;107205;1259;60037;-70
2023/01/24 11:41:19;;;;;;;29.40;14.00;;;;;;;0.69;91.71;102903.67;106985;1252;61516;-71
2023/01/24 11:44:10;;;;;;;29.30;14.60;;;;;;;0.71;91.29;102901.96;106914;1253;69141;-71
2023/01/24 11:46:51;;;;;;;28.60;14.70;;;;;;;0.70;91.65;102900.25;106707;1253;60933;-71
2023/01/24 11:49:38;;;;;;;27.30;13.50;;;;;;;0.52;91.67;102897.44;106565;1245;433319;-71
2023/01/24 11:52:41;;;;;;;32.10;15.50;;;;;;;0.50;93.21;102895.38;106989;1248;73909;-81
2023/01/24 11:55:49;;;;;;;31.70;16.30;;;;;;;0.53;93.23;102907.39;107035;1249;60487;-74
2023/01/24 11:58:42;;;;;;;33.70;14.90;;;;;;;0.33;93.03;102907.80;106974;1248;59042;-72
2023/01/24 12:01:28;;;;;;;28.80;14.70;;;;;;;0.33;92.17;102908.50;106882;1248;70847;-75
2023/01/24 12:04:15;;;;;;;29.70;14.50;;;;;;;0.23;92.95;102908.95;107045;1248;69347;-74
2023/01/24 12:07:48;;;;;;;30.40;14.60;;;;;;;0.07;93.24;102902.17;107894;1246;69677;-74
2023/01/24 12:11:10;;;;;;;32.70;15.20;;;;;;;0.18;93.06;102910.29;106836;1256;62825;-75
2023/01/24 12:14:18;;;;;;;29.20;15.10;;;;;;;0.15;93.02;102911.99;106934;1249;61967;-76
2023/01/24 12:17:45;;;;;;;31.90;16.40;;;;;;;0.10;91.21;102913.84;106842;1252;61202;-74
2023/01/24 12:20:34;;;;;;;33.30;15.30;;;;;;;0.01;91.04;102914.13;106920;1249;72530;-73
2023/01/24 12:23:39;;;;;;;33.30;15.70;;;;;;;-0.06;91.49;102918.20;107000;1251;71576;-74
2023/01/24 12:26:24;;;;;;;32.80;14.80;;;;;;;0.02;90.58;102915.69;107134;1245;69206;-74
2023/01/24 12:29:12;;;;;;;29.80;14.20;;;;;;;-0.02;90.07;102917.02;107035;1255;72869;-74